createdAt,value
2022-11-03T00:01:40.364Z,3.58
2022-11-03T00:04:10.258Z,3.65
2022-11-03T00:06:39.936Z,4.45
2022-11-03T00:09:13.491Z,4.20
2022-11-03T00:11:44.232Z,5.00
2022-11-03T00:14:14.975Z,4.47
2022-11-03T00:16:43.488Z,4.88
2022-11-03T00:19:13.907Z,3.85
2022-11-03T00:21:42.587Z,4.05
2022-11-03T00:24:14.668Z,4.00
2022-11-03T00:26:43.133Z,3.15
2022-11-03T00:29:13.986Z,2.88
2022-11-03T00:31:43.596Z,3.15
2022-11-03T00:34:13.220Z,3.03
2022-11-03T00:36:43.833Z,4.40
2022-11-03T00:39:14.164Z,3.40
2022-11-03T00:41:43.478Z,4.07
2022-11-03T00:44:14.824Z,3.38
2022-11-03T00:46:45.559Z,3.20
2022-11-03T00:49:15.983Z,3.55
2022-11-03T00:51:44.977Z,3.33
2022-11-03T00:54:14.929Z,3.53
2022-11-03T00:56:44.706Z,3.33
2022-11-03T00:59:13.508Z,3.22
2022-11-03T01:01:47.142Z,4.07
2022-11-03T01:04:33.822Z,3.42
2022-11-03T01:07:03.121Z,3.33
2022-11-03T01:09:37.311Z,3.88
2022-11-03T01:12:07.824Z,5.45
2022-11-03T01:14:39.619Z,3.50
2022-11-03T01:17:10.897Z,3.30
2022-11-03T01:19:40.036Z,4.15
2022-11-03T01:22:10.872Z,3.47
2022-11-03T01:24:42.368Z,3.83
2022-11-03T01:27:13.417Z,3.17
2022-11-03T01:29:42.870Z,3.28
2022-11-03T01:32:11.581Z,3.67
2022-11-03T01:34:40.513Z,3.35
2022-11-03T01:37:09.605Z,3.40
2022-11-03T01:39:38.792Z,3.47
2022-11-03T01:42:09.150Z,3.08
2022-11-03T01:44:39.094Z,3.28
2022-11-03T01:47:26.632Z,3.00
2022-11-03T01:50:00.703Z,3.53
2022-11-03T01:55:03.730Z,3.13
2022-11-03T01:57:37.848Z,4.00
2022-11-03T02:00:07.867Z,3.08
2022-11-03T02:02:36.947Z,3.17
2022-11-03T02:05:07.106Z,3.22
2022-11-03T02:07:40.001Z,2.63
2022-11-03T02:10:09.759Z,3.83
2022-11-03T02:12:41.607Z,3.38
2022-11-03T02:15:13.292Z,2.97
2022-11-03T02:17:43.522Z,3.45
2022-11-03T02:20:16.240Z,2.97
2022-11-03T02:23:10.038Z,4.07
2022-11-03T02:25:49.636Z,2.90
2022-11-03T02:28:21.255Z,3.55
2022-11-03T02:30:59.303Z,3.50
2022-11-03T02:33:39.426Z,3.63
2022-11-03T02:36:14.674Z,3.35
2022-11-03T02:38:49.725Z,3.65
2022-11-03T02:41:22.163Z,3.47
2022-11-03T02:43:52.032Z,3.25
2022-11-03T02:46:24.012Z,3.67
2022-11-03T02:48:52.617Z,3.65
2022-11-03T02:51:21.365Z,3.95
2022-11-03T02:54:02.709Z,3.97
2022-11-03T02:56:36.816Z,3.45
2022-11-03T02:59:10.933Z,3.30
2022-11-03T03:01:47.660Z,3.70
2022-11-03T03:04:23.965Z,3.53
2022-11-03T03:06:59.252Z,3.65
2022-11-03T03:09:32.234Z,3.45
2022-11-03T03:12:06.415Z,3.15
2022-11-03T03:14:40.011Z,3.30
2022-11-03T03:17:16.433Z,2.83
2022-11-03T03:19:51.684Z,3.47
2022-11-03T03:22:26.394Z,3.55
2022-11-03T03:25:01.640Z,3.63
2022-11-03T03:27:35.020Z,3.33
2022-11-03T03:30:06.284Z,2.60
2022-11-03T03:32:40.187Z,3.38
2022-11-03T03:35:13.188Z,4.07
2022-11-03T03:37:47.138Z,3.03
2022-11-03T03:42:50.503Z,2.92
2022-11-03T03:45:21.217Z,3.88
2022-11-03T03:47:52.501Z,2.90
2022-11-03T03:50:25.720Z,3.00
2022-11-03T03:52:57.819Z,4.53
2022-11-03T03:55:33.279Z,3.85
2022-11-03T03:58:04.355Z,3.42
2022-11-03T04:00:33.190Z,3.80
2022-11-03T04:03:02.149Z,3.67
2022-11-03T04:05:30.687Z,3.92
2022-11-03T04:07:59.928Z,3.00
2022-11-03T04:10:28.320Z,4.00
2022-11-03T04:13:14.082Z,3.53
2022-11-03T04:16:01.702Z,3.40
2022-11-03T04:18:47.898Z,3.22
2022-11-03T04:21:33.228Z,3.40
2022-11-03T04:24:02.047Z,2.85
2022-11-03T04:26:31.142Z,3.47
2022-11-03T04:29:00.628Z,3.38
2022-11-03T04:31:32.736Z,3.92
2022-11-03T04:34:01.287Z,3.28
2022-11-03T04:36:31.143Z,3.47
2022-11-03T04:38:59.595Z,3.40
2022-11-03T04:41:33.288Z,3.90
2022-11-03T04:44:02.387Z,4.07
2022-11-03T04:46:33.903Z,2.83
2022-11-03T04:49:03.450Z,3.42
2022-11-03T04:51:35.146Z,3.85
2022-11-03T04:54:05.852Z,4.00
2022-11-03T04:56:36.084Z,3.00
2022-11-03T04:59:04.438Z,2.60
2022-11-03T05:01:34.325Z,3.42
2022-11-03T05:04:03.414Z,3.90
2022-11-03T05:06:31.705Z,3.33
2022-11-03T05:09:03.947Z,3.40
2022-11-03T05:11:36.972Z,3.22
2022-11-03T05:14:16.184Z,3.47
2022-11-03T05:16:47.008Z,2.90
2022-11-03T05:19:20.851Z,3.95
2022-11-03T05:21:51.591Z,3.42
2022-11-03T05:24:26.193Z,4.18
2022-11-03T05:26:56.247Z,3.35
2022-11-03T05:29:28.098Z,3.47
2022-11-03T05:31:59.002Z,3.28
2022-11-03T05:34:36.805Z,2.83
2022-11-03T05:37:26.423Z,2.85
2022-11-03T05:39:59.417Z,2.92
2022-11-03T05:42:33.684Z,3.38
2022-11-03T05:45:06.169Z,4.28
2022-11-03T05:47:39.487Z,2.90
2022-11-03T05:50:21.184Z,2.80
2022-11-03T05:52:52.792Z,3.40
2022-11-03T05:55:34.115Z,2.97
2022-11-03T05:58:13.649Z,2.85
2022-11-03T06:00:48.591Z,3.33
2022-11-03T06:03:25.869Z,3.45
2022-11-03T06:05:55.778Z,2.78
2022-11-03T06:08:27.966Z,3.08
2022-11-03T06:10:58.585Z,4.05
2022-11-03T06:13:32.355Z,5.00
2022-11-03T06:16:04.769Z,4.15
2022-11-03T06:18:37.928Z,3.58
2022-11-03T06:21:09.751Z,3.77
2022-11-03T06:23:40.525Z,3.58
2022-11-03T06:26:20.270Z,5.68
2022-11-03T06:28:52.168Z,4.90
2022-11-03T06:31:25.861Z,3.80
2022-11-03T06:33:57.704Z,3.30
2022-11-03T06:36:29.390Z,3.60
2022-11-03T06:39:04.012Z,4.93
2022-11-03T06:41:37.791Z,4.78
2022-11-03T06:44:26.798Z,4.68
2022-11-03T06:46:57.681Z,4.20
2022-11-03T06:49:37.844Z,5.65
2022-11-03T06:52:22.609Z,6.35
2022-11-03T06:54:52.423Z,6.20
2022-11-03T06:57:21.304Z,7.10
2022-11-03T07:00:06.574Z,5.70
2022-11-03T07:02:55.626Z,6.82
2022-11-03T07:05:27.603Z,5.18
2022-11-03T07:07:58.341Z,5.45
2022-11-03T07:10:29.133Z,5.78
2022-11-03T07:13:02.959Z,5.47
2022-11-03T07:15:37.602Z,5.47
2022-11-03T07:18:15.819Z,4.88
2022-11-03T07:20:45.829Z,5.65
2022-11-03T07:23:19.446Z,5.05
2022-11-03T07:25:53.872Z,4.53
2022-11-03T07:28:26.232Z,5.50
2022-11-03T07:30:55.748Z,5.40
2022-11-03T07:33:27.555Z,5.97
2022-11-03T07:36:16.799Z,7.63
2022-11-03T07:38:48.752Z,4.80
2022-11-03T07:41:21.298Z,5.65
2022-11-03T07:43:56.649Z,5.72
2022-11-03T07:46:27.424Z,5.53
2022-11-03T07:49:00.005Z,5.38
2022-11-03T07:51:33.000Z,5.15
2022-11-03T07:54:05.056Z,5.35
2022-11-03T07:56:37.270Z,4.82
2022-11-03T07:59:30.288Z,6.28
2022-11-03T08:01:59.967Z,5.78
2022-11-03T08:04:32.646Z,5.28
2022-11-03T08:07:03.172Z,5.60
2022-11-03T08:09:32.372Z,6.13
2022-11-03T08:12:01.702Z,4.72
2022-11-03T08:14:31.718Z,5.38
2022-11-03T08:17:00.633Z,4.25
2022-11-03T08:19:29.012Z,3.47
2022-11-03T08:21:58.989Z,4.43
2022-11-03T08:24:28.925Z,4.00
2022-11-03T08:26:57.548Z,4.65
2022-11-03T08:29:28.340Z,4.03
2022-11-03T08:31:57.436Z,3.78
2022-11-03T08:34:26.669Z,4.00
2022-11-03T08:36:56.108Z,3.78
2022-11-03T08:39:24.550Z,4.05
2022-11-03T08:41:54.818Z,3.83
2022-11-03T08:44:23.776Z,3.95
2022-11-03T08:46:52.665Z,4.10
2022-11-03T08:49:21.649Z,3.72
2022-11-03T08:51:50.256Z,4.18
2022-11-03T08:54:18.942Z,2.75
2022-11-03T08:56:49.247Z,2.70
2022-11-03T08:59:20.197Z,3.00
2022-11-03T09:01:49.779Z,3.08
2022-11-03T09:04:18.117Z,3.15
2022-11-03T09:06:56.886Z,2.78
2022-11-03T09:12:14.975Z,3.25
2022-11-03T09:14:45.588Z,2.03
2022-11-03T09:17:14.389Z,2.10
2022-11-03T09:19:42.958Z,1.80
2022-11-03T09:22:11.872Z,2.22
2022-11-03T09:24:40.306Z,1.42
2022-11-03T09:27:08.798Z,1.55
2022-11-03T09:30:06.430Z,1.52
2022-11-03T09:32:28.758Z,2.45
2022-11-03T09:34:58.145Z,1.70
2022-11-03T09:37:27.003Z,2.55
2022-11-03T09:39:55.695Z,2.33
2022-11-03T09:42:24.708Z,2.25
2022-11-03T09:44:55.207Z,2.17
2022-11-03T09:47:26.834Z,2.53
2022-11-03T09:49:59.310Z,1.77
2022-11-03T09:52:30.215Z,2.33
2022-11-03T09:55:00.199Z,1.80
2022-11-03T09:57:30.694Z,1.88
2022-11-03T09:59:59.381Z,2.30
2022-11-03T10:02:31.616Z,2.90
2022-11-03T10:05:09.835Z,2.90
2022-11-03T10:07:39.700Z,2.35
2022-11-03T10:10:09.099Z,2.00
2022-11-03T10:12:40.159Z,3.00
2022-11-03T10:15:15.875Z,2.55
2022-11-03T10:17:45.724Z,2.45
2022-11-03T10:20:18.043Z,2.53
2022-11-03T10:22:48.431Z,2.53
2022-11-03T10:25:31.921Z,2.50
2022-11-03T10:28:15.879Z,2.97
2022-11-03T10:31:12.591Z,2.63
2022-11-03T10:33:47.111Z,2.33
2022-11-03T10:36:29.250Z,2.78
2022-11-03T10:38:58.144Z,3.15
2022-11-03T10:41:28.389Z,2.38
2022-11-03T10:44:06.351Z,2.67
2022-11-03T10:46:49.519Z,3.08
2022-11-03T10:49:21.526Z,2.45
2022-11-03T10:51:54.425Z,2.47
2022-11-03T10:54:25.026Z,2.53
2022-11-03T10:56:54.454Z,2.25
2022-11-03T10:59:25.924Z,2.13
2022-11-03T11:01:54.721Z,2.28
2022-11-03T11:04:23.586Z,3.67
2022-11-03T11:06:54.593Z,2.58
2022-11-03T11:09:26.697Z,3.05
2022-11-03T11:12:03.625Z,3.15
2022-11-03T11:14:41.551Z,2.53
2022-11-03T11:17:42.062Z,2.97
2022-11-03T11:20:35.661Z,3.20
2022-11-03T11:23:50.358Z,3.42
2022-11-03T11:26:38.797Z,3.20
2022-11-03T11:29:44.301Z,2.90
2022-11-03T11:32:49.493Z,2.80
2022-11-03T11:36:05.884Z,3.13
2022-11-03T11:38:57.599Z,3.88
2022-11-03T11:42:03.130Z,2.72
2022-11-03T11:44:57.301Z,2.88
2022-11-03T11:47:49.963Z,2.75
2022-11-03T11:50:32.022Z,2.80
2022-11-03T11:53:10.632Z,2.97
2022-11-03T11:55:57.749Z,3.40
2022-11-03T11:58:32.426Z,2.22
2022-11-03T12:01:04.894Z,3.17
2022-11-03T12:03:40.186Z,3.00
2022-11-03T12:06:10.771Z,2.60
2022-11-03T12:08:39.001Z,2.70
2022-11-03T12:11:09.068Z,2.95
2022-11-03T12:13:45.351Z,3.53
2022-11-03T12:19:42.891Z,1.85
2022-11-03T12:22:13.320Z,3.40
2022-11-03T12:24:54.802Z,2.80
2022-11-03T12:27:44.900Z,2.60
2022-11-03T12:30:20.064Z,3.58
2022-11-03T12:32:49.774Z,2.50
2022-11-03T12:35:19.543Z,2.28
2022-11-03T12:37:49.222Z,2.90
2022-11-03T12:40:18.979Z,2.60
2022-11-03T12:42:47.728Z,2.55
2022-11-03T12:45:15.952Z,2.92
2022-11-03T12:47:45.250Z,2.47
2022-11-03T12:50:14.414Z,2.88
2022-11-03T12:52:44.297Z,3.40
2022-11-03T12:55:13.411Z,5.28
2022-11-03T12:57:42.515Z,5.10
2022-11-03T13:00:12.500Z,4.07
2022-11-03T13:02:41.487Z,4.47
2022-11-03T13:05:15.425Z,2.90
2022-11-03T13:08:06.129Z,2.90
2022-11-03T13:10:35.380Z,4.15
2022-11-03T13:13:05.627Z,3.20
2022-11-03T13:15:34.969Z,3.47
2022-11-03T13:18:13.320Z,4.28
2022-11-03T13:20:44.525Z,3.78
2022-11-03T13:23:17.463Z,3.55
2022-11-03T13:25:49.003Z,4.15
2022-11-03T13:28:17.632Z,3.60
2022-11-03T13:30:48.444Z,3.95
2022-11-03T13:33:17.141Z,3.95
2022-11-03T13:35:47.848Z,3.78
2022-11-03T13:38:17.662Z,3.25
2022-11-03T13:41:08.177Z,4.07
2022-11-03T13:43:35.176Z,4.43
2022-11-03T13:46:05.295Z,4.32
2022-11-03T13:49:23.417Z,3.97
2022-11-03T13:51:23.981Z,3.92
2022-11-03T13:59:36.879Z,3.75
2022-11-03T14:04:54.856Z,4.57
2022-11-03T14:07:23.453Z,4.68
2022-11-03T14:09:55.841Z,4.07
2022-11-03T14:12:35.213Z,5.38
2022-11-03T14:15:06.001Z,4.18
2022-11-03T14:17:34.894Z,4.18
2022-11-03T14:20:04.984Z,6.18
2022-11-03T14:22:34.471Z,4.10
2022-11-03T14:25:06.962Z,4.25
2022-11-03T14:27:36.267Z,4.13
2022-11-03T14:30:06.671Z,4.65
2022-11-03T14:32:35.372Z,5.53
2022-11-03T14:35:04.352Z,6.22
2022-11-03T14:37:34.150Z,6.30
2022-11-03T14:40:05.594Z,4.97
2022-11-03T14:42:33.204Z,4.88
2022-11-03T14:45:01.547Z,5.95
2022-11-03T14:47:31.823Z,5.93
2022-11-03T14:50:01.247Z,6.68
2022-11-03T14:52:29.906Z,5.93
2022-11-03T14:54:59.325Z,5.55
2022-11-03T14:57:30.925Z,7.25
2022-11-03T14:59:59.726Z,5.88
2022-11-03T15:02:28.463Z,7.20
2022-11-03T15:04:57.247Z,7.70
2022-11-03T15:07:25.937Z,6.20
2022-11-03T15:09:55.200Z,5.82
2022-11-03T15:12:23.521Z,7.07
2022-11-03T15:14:53.984Z,8.48
2022-11-03T15:17:23.321Z,8.00
2022-11-03T15:19:52.050Z,7.80
2022-11-03T15:22:20.906Z,6.40
2022-11-03T15:27:40.255Z,7.03
2022-11-03T15:30:11.276Z,7.35
2022-11-03T15:32:39.970Z,6.93
2022-11-03T15:35:09.578Z,7.20
2022-11-03T15:37:38.073Z,6.32
2022-11-03T15:40:07.875Z,6.93
2022-11-03T15:42:36.559Z,6.93
2022-11-03T15:45:05.786Z,7.68
2022-11-03T15:47:36.166Z,8.70
2022-11-03T15:50:04.899Z,8.60
2022-11-03T15:52:34.100Z,7.95
2022-11-03T15:55:02.776Z,7.80
2022-11-03T15:57:31.479Z,11.70
2022-11-03T16:00:01.570Z,8.20
2022-11-03T16:02:46.323Z,7.20
2022-11-03T16:05:24.828Z,6.28
2022-11-03T16:07:54.204Z,8.02
2022-11-03T16:10:23.434Z,7.13
2022-11-03T16:12:52.680Z,8.15
2022-11-03T16:15:21.371Z,7.55
2022-11-03T16:17:54.533Z,8.63
2022-11-03T16:20:27.518Z,9.88
2022-11-03T16:22:57.192Z,9.73
2022-11-03T16:25:26.323Z,12.63
2022-11-03T16:27:55.567Z,7.63
2022-11-03T16:30:26.515Z,8.95
2022-11-03T16:32:55.028Z,14.30
2022-11-03T16:35:24.922Z,8.57
2022-11-03T16:37:55.059Z,9.13
2022-11-03T16:40:23.937Z,7.75
2022-11-03T16:42:52.833Z,9.30
2022-11-03T16:45:26.935Z,7.78
2022-11-03T16:50:27.190Z,6.80
2022-11-03T16:52:57.523Z,7.32
2022-11-03T16:55:26.209Z,6.78
2022-11-03T16:57:56.134Z,6.85
2022-11-03T17:00:27.068Z,8.40
2022-11-03T17:02:55.884Z,7.40
2022-11-03T17:05:25.276Z,8.02
2022-11-03T17:07:56.242Z,7.55
2022-11-03T17:10:25.207Z,7.10
2022-11-03T17:12:56.158Z,7.95
2022-11-03T17:15:24.966Z,6.88
2022-11-03T17:17:55.453Z,7.78
2022-11-03T17:20:24.742Z,8.68
2022-11-03T17:22:56.059Z,6.72
2022-11-03T17:25:26.182Z,6.65
2022-11-03T17:27:59.295Z,7.50
2022-11-03T17:30:32.940Z,7.55
2022-11-03T17:33:07.402Z,6.45
2022-11-03T17:35:39.935Z,7.65
2022-11-03T17:38:14.265Z,7.63
2022-11-03T17:43:24.474Z,8.48
2022-11-03T17:45:55.138Z,9.75
2022-11-03T17:48:24.915Z,10.05
2022-11-03T17:50:57.490Z,11.45
2022-11-03T17:53:31.505Z,11.27
2022-11-03T17:58:52.299Z,8.32
2022-11-03T18:01:25.299Z,9.23
2022-11-03T18:03:54.893Z,9.17
2022-11-03T18:06:24.507Z,7.63
2022-11-03T18:08:54.652Z,10.18
2022-11-03T18:11:49.204Z,9.65
2022-11-03T18:14:19.030Z,10.93
2022-11-03T18:16:48.975Z,8.10
2022-11-03T18:19:18.694Z,9.35
2022-11-03T18:21:49.279Z,9.80
2022-11-03T18:24:22.396Z,8.60
2022-11-03T18:26:51.276Z,8.83
2022-11-03T18:29:22.441Z,8.25
2022-11-03T18:31:52.609Z,10.93
2022-11-03T18:34:24.540Z,6.72
2022-11-03T18:36:55.658Z,8.00
2022-11-03T18:39:29.070Z,6.57
2022-11-03T18:41:57.865Z,8.02
2022-11-03T18:44:29.622Z,7.75
2022-11-03T18:46:59.873Z,7.38
2022-11-03T18:49:33.442Z,6.10
2022-11-03T18:52:04.726Z,6.38
2022-11-03T18:54:36.959Z,6.63
2022-11-03T18:57:06.791Z,5.78
2022-11-03T18:59:39.242Z,6.53
2022-11-03T19:02:19.304Z,6.07
2022-11-03T19:04:49.660Z,6.70
2022-11-03T19:07:25.217Z,5.65
2022-11-03T19:09:56.049Z,6.95
2022-11-03T19:12:27.308Z,6.30
2022-11-03T19:14:57.277Z,5.78
2022-11-03T19:17:27.624Z,6.57
2022-11-03T19:19:58.310Z,7.78
2022-11-03T19:22:28.967Z,6.43
2022-11-03T19:25:02.183Z,6.50
2022-11-03T19:27:36.164Z,5.70
2022-11-03T19:30:06.489Z,5.00
2022-11-03T19:32:39.423Z,6.25
2022-11-03T19:35:16.114Z,7.18
2022-11-03T19:37:46.204Z,10.88
2022-11-03T19:40:19.730Z,7.50
2022-11-03T19:42:49.575Z,6.25
2022-11-03T19:45:20.845Z,5.90
2022-11-03T19:48:22.374Z,5.78
2022-11-03T19:50:49.882Z,5.20
2022-11-03T19:53:23.467Z,6.57
2022-11-03T19:55:56.548Z,5.28
2022-11-03T19:58:28.787Z,6.00
2022-11-03T20:00:58.385Z,7.15
2022-11-03T20:03:29.218Z,12.20
2022-11-03T20:06:00.046Z,7.88
2022-11-03T20:08:31.499Z,5.82
2022-11-03T20:11:02.391Z,5.40
2022-11-03T20:13:42.541Z,5.97
2022-11-03T20:16:14.747Z,32.85
2022-11-03T20:18:43.986Z,5.72
2022-11-03T20:21:16.711Z,7.65
2022-11-03T20:23:47.087Z,14.10
2022-11-03T20:26:19.918Z,31.42
2022-11-03T20:28:49.434Z,12.90
2022-11-03T20:31:19.207Z,5.53
2022-11-03T20:33:48.500Z,5.03
2022-11-03T20:36:18.572Z,4.70
2022-11-03T20:38:53.029Z,4.63
2022-11-03T20:41:23.079Z,5.80
2022-11-03T20:43:53.462Z,5.38
2022-11-03T20:46:26.497Z,6.13
2022-11-03T20:48:56.641Z,5.50
2022-11-03T20:51:27.358Z,5.38
2022-11-03T20:53:59.776Z,4.85
2022-11-03T20:56:30.935Z,7.28
2022-11-03T20:58:59.716Z,6.97
2022-11-03T21:01:33.559Z,9.32
2022-11-03T21:04:03.943Z,8.57
2022-11-03T21:06:34.047Z,10.68
2022-11-03T21:09:02.867Z,10.60
2022-11-03T21:11:39.939Z,9.60
2022-11-03T21:14:16.137Z,8.05
2022-11-03T21:17:01.959Z,6.15
2022-11-03T21:19:57.905Z,6.45
2022-11-03T21:22:50.707Z,5.57
2022-11-03T21:25:22.220Z,4.50
2022-11-03T21:27:54.155Z,5.60
2022-11-03T21:30:24.270Z,5.20
2022-11-03T21:32:52.751Z,5.82
2022-11-03T21:35:23.038Z,6.05
2022-11-03T21:37:52.863Z,6.00
2022-11-03T21:40:21.917Z,8.20
2022-11-03T21:43:10.846Z,6.47
2022-11-03T21:45:39.202Z,6.85
2022-11-03T21:48:25.524Z,8.23
2022-11-03T21:50:54.422Z,7.28
2022-11-03T21:53:23.444Z,6.78
2022-11-03T21:55:54.380Z,7.03
2022-11-03T21:58:25.208Z,7.05
2022-11-03T22:00:54.107Z,7.75
2022-11-03T22:03:23.503Z,7.32
2022-11-03T22:05:52.058Z,7.30
2022-11-03T22:08:21.595Z,7.90
2022-11-03T22:10:51.925Z,7.05
2022-11-03T22:13:20.640Z,8.15
2022-11-03T22:16:07.947Z,7.50
2022-11-03T22:18:36.485Z,6.68
2022-11-03T22:21:23.079Z,7.82
2022-11-03T22:24:08.408Z,7.88
2022-11-03T22:26:54.243Z,8.48
2022-11-03T22:29:41.137Z,8.93
2022-11-03T22:32:17.192Z,8.63
2022-11-03T22:35:03.293Z,8.25
2022-11-03T22:40:17.312Z,8.13
2022-11-03T22:43:03.299Z,7.82
2022-11-03T22:45:49.459Z,8.00
2022-11-03T22:48:19.789Z,8.30
2022-11-03T22:50:49.146Z,8.88
2022-11-03T22:53:35.518Z,8.60
2022-11-03T22:56:04.599Z,7.80
2022-11-03T22:58:33.457Z,7.65
2022-11-03T23:01:05.778Z,7.65
2022-11-03T23:03:39.565Z,7.88
2022-11-03T23:06:10.267Z,7.40
2022-11-03T23:08:42.014Z,7.18
2022-11-03T23:11:16.650Z,8.07
2022-11-03T23:13:45.880Z,6.38
2022-11-03T23:16:18.377Z,9.30
2022-11-03T23:19:07.009Z,7.35
2022-11-03T23:21:36.245Z,7.72
2022-11-03T23:24:22.779Z,7.30
2022-11-03T23:26:54.974Z,7.25
2022-11-03T23:29:24.194Z,8.40
2022-11-03T23:31:53.139Z,7.80
2022-11-03T23:34:23.569Z,7.72
2022-11-03T23:36:52.663Z,9.05
2022-11-03T23:39:22.282Z,8.30
2022-11-03T23:41:52.024Z,7.18
2022-11-03T23:44:20.994Z,6.95
2022-11-03T23:47:07.480Z,8.05
2022-11-03T23:49:38.318Z,7.63
2022-11-03T23:52:07.085Z,7.82
2022-11-03T23:54:35.824Z,7.65
2022-11-03T23:57:21.913Z,6.70
2022-11-03T23:59:51.524Z,7.00
